sensor_id;sensor_type;location;lat;lon;timestamp;P1;durP1;ratioP1;P2;durP2;ratioP2
17361;SDS011;8798;51.938;4.348;2022-07-06T00:01:24;3.80;;;0.67;;
17361;SDS011;8798;51.938;4.348;2022-07-06T00:03:52;3.67;;;0.80;;
17361;SDS011;8798;51.938;4.348;2022-07-06T00:06:21;2.10;;;0.70;;
17361;SDS011;8798;51.938;4.348;2022-07-06T00:08:50;1.17;;;0.77;;
17361;SDS011;8798;51.938;4.348;2022-07-06T00:11:19;1.23;;;0.73;;
17361;SDS011;8798;51.938;4.348;2022-07-06T00:13:48;2.07;;;0.63;;
17361;SDS011;8798;51.938;4.348;2022-07-06T00:16:16;2.17;;;0.70;;
17361;SDS011;8798;51.938;4.348;2022-07-06T00:18:44;1.90;;;0.57;;
17361;SDS011;8798;51.938;4.348;2022-07-06T00:21:13;3.60;;;0.70;;
17361;SDS011;8798;51.938;4.348;2022-07-06T00:23:41;1.17;;;0.50;;
17361;SDS011;8798;51.938;4.348;2022-07-06T00:26:09;2.17;;;0.70;;
17361;SDS011;8798;51.938;4.348;2022-07-06T00:28:39;1.57;;;0.50;;
17361;SDS011;8798;51.938;4.348;2022-07-06T00:31:08;1.07;;;0.70;;
17361;SDS011;8798;51.938;4.348;2022-07-06T00:33:36;1.87;;;0.70;;
17361;SDS011;8798;51.938;4.348;2022-07-06T00:36:05;1.23;;;0.60;;
17361;SDS011;8798;51.938;4.348;2022-07-06T00:38:33;2.63;;;0.60;;
17361;SDS011;8798;51.938;4.348;2022-07-06T00:41:02;1.03;;;0.60;;
17361;SDS011;8798;51.938;4.348;2022-07-06T00:46:23;1.10;;;0.73;;
17361;SDS011;8798;51.938;4.348;2022-07-06T00:48:55;2.63;;;0.83;;
17361;SDS011;8798;51.938;4.348;2022-07-06T00:51:25;2.50;;;0.63;;
17361;SDS011;8798;51.938;4.348;2022-07-06T00:53:57;1.53;;;0.50;;
17361;SDS011;8798;51.938;4.348;2022-07-06T00:56:28;1.23;;;0.50;;
17361;SDS011;8798;51.938;4.348;2022-07-06T00:59:02;0.90;;;0.50;;
17361;SDS011;8798;51.938;4.348;2022-07-06T01:01:30;1.43;;;0.70;;
17361;SDS011;8798;51.938;4.348;2022-07-06T01:03:58;1.83;;;0.63;;
17361;SDS011;8798;51.938;4.348;2022-07-06T01:06:27;1.57;;;0.83;;
17361;SDS011;8798;51.938;4.348;2022-07-06T01:08:55;0.93;;;0.50;;
17361;SDS011;8798;51.938;4.348;2022-07-06T01:11:24;2.03;;;0.70;;
17361;SDS011;8798;51.938;4.348;2022-07-06T01:13:54;2.60;;;0.60;;
17361;SDS011;8798;51.938;4.348;2022-07-06T01:16:25;1.00;;;0.60;;
17361;SDS011;8798;51.938;4.348;2022-07-06T01:18:54;1.70;;;0.60;;
17361;SDS011;8798;51.938;4.348;2022-07-06T01:21:23;2.13;;;0.40;;
17361;SDS011;8798;51.938;4.348;2022-07-06T01:23:51;2.23;;;0.63;;
17361;SDS011;8798;51.938;4.348;2022-07-06T01:26:20;2.13;;;0.67;;
17361;SDS011;8798;51.938;4.348;2022-07-06T01:28:50;1.23;;;0.67;;
17361;SDS011;8798;51.938;4.348;2022-07-06T01:31:20;0.83;;;0.50;;
17361;SDS011;8798;51.938;4.348;2022-07-06T01:33:50;2.03;;;0.60;;
17361;SDS011;8798;51.938;4.348;2022-07-06T01:36:20;2.83;;;0.50;;
17361;SDS011;8798;51.938;4.348;2022-07-06T01:38:51;2.03;;;0.50;;
17361;SDS011;8798;51.938;4.348;2022-07-06T01:41:20;1.33;;;0.80;;
17361;SDS011;8798;51.938;4.348;2022-07-06T01:43:49;2.77;;;0.80;;
17361;SDS011;8798;51.938;4.348;2022-07-06T01:46:17;1.83;;;0.70;;
17361;SDS011;8798;51.938;4.348;2022-07-06T01:48:46;0.70;;;0.60;;
17361;SDS011;8798;51.938;4.348;2022-07-06T01:51:17;1.47;;;0.70;;
17361;SDS011;8798;51.938;4.348;2022-07-06T01:53:46;1.60;;;0.70;;
17361;SDS011;8798;51.938;4.348;2022-07-06T01:56:15;1.13;;;0.53;;
17361;SDS011;8798;51.938;4.348;2022-07-06T01:58:45;2.10;;;0.67;;
17361;SDS011;8798;51.938;4.348;2022-07-06T02:01:15;1.00;;;0.60;;
17361;SDS011;8798;51.938;4.348;2022-07-06T02:03:45;1.37;;;0.63;;
17361;SDS011;8798;51.938;4.348;2022-07-06T02:06:13;3.23;;;0.60;;
17361;SDS011;8798;51.938;4.348;2022-07-06T02:08:41;2.00;;;0.60;;
17361;SDS011;8798;51.938;4.348;2022-07-06T02:11:10;1.33;;;0.60;;
17361;SDS011;8798;51.938;4.348;2022-07-06T02:13:40;1.20;;;0.70;;
17361;SDS011;8798;51.938;4.348;2022-07-06T02:16:08;2.07;;;0.80;;
17361;SDS011;8798;51.938;4.348;2022-07-06T02:18:37;0.63;;;0.60;;
17361;SDS011;8798;51.938;4.348;2022-07-06T02:21:05;0.50;;;0.50;;
17361;SDS011;8798;51.938;4.348;2022-07-06T02:23:34;1.23;;;0.77;;
17361;SDS011;8798;51.938;4.348;2022-07-06T02:26:02;1.67;;;0.80;;
17361;SDS011;8798;51.938;4.348;2022-07-06T02:28:33;0.90;;;0.50;;
17361;SDS011;8798;51.938;4.348;2022-07-06T02:31:03;1.47;;;0.60;;
17361;SDS011;8798;51.938;4.348;2022-07-06T02:33:31;1.67;;;0.50;;
17361;SDS011;8798;51.938;4.348;2022-07-06T02:36:02;1.20;;;0.50;;
17361;SDS011;8798;51.938;4.348;2022-07-06T02:38:30;2.17;;;0.60;;
17361;SDS011;8798;51.938;4.348;2022-07-06T02:41:02;1.50;;;0.60;;
17361;SDS011;8798;51.938;4.348;2022-07-06T02:43:36;1.97;;;0.73;;
17361;SDS011;8798;51.938;4.348;2022-07-06T02:46:06;0.83;;;0.60;;
17361;SDS011;8798;51.938;4.348;2022-07-06T02:48:34;1.67;;;0.70;;
17361;SDS011;8798;51.938;4.348;2022-07-06T02:51:03;0.83;;;0.50;;
17361;SDS011;8798;51.938;4.348;2022-07-06T02:53:31;2.23;;;0.80;;
17361;SDS011;8798;51.938;4.348;2022-07-06T02:55:59;2.30;;;0.70;;
17361;SDS011;8798;51.938;4.348;2022-07-06T02:58:27;0.83;;;0.50;;
17361;SDS011;8798;51.938;4.348;2022-07-06T03:00:55;1.70;;;0.60;;
17361;SDS011;8798;51.938;4.348;2022-07-06T03:03:25;1.77;;;0.50;;
17361;SDS011;8798;51.938;4.348;2022-07-06T03:05:54;3.97;;;0.60;;
17361;SDS011;8798;51.938;4.348;2022-07-06T03:08:21;1.67;;;0.50;;
17361;SDS011;8798;51.938;4.348;2022-07-06T03:10:51;0.80;;;0.50;;
17361;SDS011;8798;51.938;4.348;2022-07-06T03:13:19;3.80;;;0.73;;
17361;SDS011;8798;51.938;4.348;2022-07-06T03:15:47;3.30;;;0.80;;
17361;SDS011;8798;51.938;4.348;2022-07-06T03:18:16;2.90;;;0.60;;
17361;SDS011;8798;51.938;4.348;2022-07-06T03:20:47;2.73;;;0.80;;
17361;SDS011;8798;51.938;4.348;2022-07-06T03:23:15;0.60;;;0.43;;
17361;SDS011;8798;51.938;4.348;2022-07-06T03:25:43;1.43;;;0.50;;
17361;SDS011;8798;51.938;4.348;2022-07-06T03:28:12;0.77;;;0.47;;
17361;SDS011;8798;51.938;4.348;2022-07-06T03:30:40;2.23;;;0.73;;
17361;SDS011;8798;51.938;4.348;2022-07-06T03:33:08;0.63;;;0.53;;
17361;SDS011;8798;51.938;4.348;2022-07-06T03:35:37;1.37;;;0.60;;
17361;SDS011;8798;51.938;4.348;2022-07-06T03:38:07;1.20;;;0.60;;
17361;SDS011;8798;51.938;4.348;2022-07-06T03:40:35;1.83;;;1.07;;
17361;SDS011;8798;51.938;4.348;2022-07-06T03:43:03;1.60;;;0.70;;
17361;SDS011;8798;51.938;4.348;2022-07-06T03:45:31;2.23;;;0.60;;
17361;SDS011;8798;51.938;4.348;2022-07-06T03:47:59;0.73;;;0.60;;
17361;SDS011;8798;51.938;4.348;2022-07-06T03:50:27;1.70;;;0.87;;
17361;SDS011;8798;51.938;4.348;2022-07-06T03:52:56;0.80;;;0.60;;
17361;SDS011;8798;51.938;4.348;2022-07-06T03:55:26;0.70;;;0.70;;
17361;SDS011;8798;51.938;4.348;2022-07-06T03:57:55;2.63;;;0.67;;
17361;SDS011;8798;51.938;4.348;2022-07-06T04:00:31;1.60;;;0.70;;
17361;SDS011;8798;51.938;4.348;2022-07-06T04:03:04;1.23;;;0.67;;
17361;SDS011;8798;51.938;4.348;2022-07-06T04:05:32;1.80;;;0.67;;
17361;SDS011;8798;51.938;4.348;2022-07-06T04:08:01;1.47;;;0.57;;
17361;SDS011;8798;51.938;4.348;2022-07-06T04:10:30;1.10;;;0.70;;
17361;SDS011;8798;51.938;4.348;2022-07-06T04:13:02;1.87;;;0.67;;
17361;SDS011;8798;51.938;4.348;2022-07-06T04:15:31;1.83;;;0.70;;
17361;SDS011;8798;51.938;4.348;2022-07-06T04:17:58;1.27;;;0.80;;
17361;SDS011;8798;51.938;4.348;2022-07-06T04:20:27;0.97;;;0.60;;
17361;SDS011;8798;51.938;4.348;2022-07-06T04:22:55;1.93;;;0.63;;
17361;SDS011;8798;51.938;4.348;2022-07-06T04:25:24;2.03;;;0.80;;
17361;SDS011;8798;51.938;4.348;2022-07-06T04:27:53;1.43;;;0.60;;
17361;SDS011;8798;51.938;4.348;2022-07-06T04:30:21;1.23;;;0.70;;
17361;SDS011;8798;51.938;4.348;2022-07-06T04:32:50;1.70;;;0.90;;
17361;SDS011;8798;51.938;4.348;2022-07-06T04:35:18;1.70;;;0.80;;
17361;SDS011;8798;51.938;4.348;2022-07-06T04:37:46;1.43;;;0.63;;
17361;SDS011;8798;51.938;4.348;2022-07-06T04:40:15;2.07;;;0.80;;
17361;SDS011;8798;51.938;4.348;2022-07-06T04:42:44;2.47;;;0.80;;
17361;SDS011;8798;51.938;4.348;2022-07-06T04:45:13;0.90;;;0.70;;
17361;SDS011;8798;51.938;4.348;2022-07-06T04:47:42;8.70;;;0.90;;
17361;SDS011;8798;51.938;4.348;2022-07-06T04:50:10;3.33;;;0.87;;
17361;SDS011;8798;51.938;4.348;2022-07-06T04:52:39;3.13;;;1.20;;
17361;SDS011;8798;51.938;4.348;2022-07-06T04:55:07;1.63;;;0.70;;
17361;SDS011;8798;51.938;4.348;2022-07-06T04:57:39;1.67;;;0.80;;
17361;SDS011;8798;51.938;4.348;2022-07-06T05:00:08;2.73;;;0.67;;
17361;SDS011;8798;51.938;4.348;2022-07-06T05:02:39;1.97;;;0.70;;
17361;SDS011;8798;51.938;4.348;2022-07-06T05:05:07;2.77;;;0.73;;
17361;SDS011;8798;51.938;4.348;2022-07-06T05:07:36;1.10;;;0.73;;
17361;SDS011;8798;51.938;4.348;2022-07-06T05:10:07;1.83;;;0.70;;
17361;SDS011;8798;51.938;4.348;2022-07-06T05:12:37;1.87;;;0.70;;
17361;SDS011;8798;51.938;4.348;2022-07-06T05:15:09;1.27;;;0.73;;
17361;SDS011;8798;51.938;4.348;2022-07-06T05:17:39;2.67;;;1.17;;
17361;SDS011;8798;51.938;4.348;2022-07-06T05:20:07;2.43;;;0.90;;
17361;SDS011;8798;51.938;4.348;2022-07-06T05:22:35;3.43;;;0.90;;
17361;SDS011;8798;51.938;4.348;2022-07-06T05:25:11;3.27;;;1.00;;
17361;SDS011;8798;51.938;4.348;2022-07-06T05:27:39;2.20;;;0.80;;
17361;SDS011;8798;51.938;4.348;2022-07-06T05:30:08;1.63;;;0.73;;
17361;SDS011;8798;51.938;4.348;2022-07-06T05:32:38;2.13;;;0.83;;
17361;SDS011;8798;51.938;4.348;2022-07-06T05:35:07;2.20;;;0.90;;
17361;SDS011;8798;51.938;4.348;2022-07-06T05:37:55;1.77;;;0.60;;
17361;SDS011;8798;51.938;4.348;2022-07-06T05:40:23;2.50;;;1.00;;
17361;SDS011;8798;51.938;4.348;2022-07-06T05:42:51;2.73;;;0.70;;
17361;SDS011;8798;51.938;4.348;2022-07-06T05:45:19;1.20;;;0.60;;
17361;SDS011;8798;51.938;4.348;2022-07-06T05:47:50;2.20;;;0.70;;
17361;SDS011;8798;51.938;4.348;2022-07-06T05:50:36;3.40;;;0.70;;
17361;SDS011;8798;51.938;4.348;2022-07-06T05:53:05;1.13;;;0.50;;
17361;SDS011;8798;51.938;4.348;2022-07-06T05:55:44;2.07;;;0.60;;
17361;SDS011;8798;51.938;4.348;2022-07-06T05:58:12;3.53;;;0.67;;
17361;SDS011;8798;51.938;4.348;2022-07-06T06:00:41;2.57;;;0.87;;
17361;SDS011;8798;51.938;4.348;2022-07-06T06:03:11;0.97;;;0.67;;
17361;SDS011;8798;51.938;4.348;2022-07-06T06:05:40;1.53;;;0.60;;
17361;SDS011;8798;51.938;4.348;2022-07-06T06:08:08;1.13;;;0.50;;
17361;SDS011;8798;51.938;4.348;2022-07-06T06:10:37;2.27;;;0.80;;
17361;SDS011;8798;51.938;4.348;2022-07-06T06:13:04;3.33;;;0.80;;
17361;SDS011;8798;51.938;4.348;2022-07-06T06:15:33;1.10;;;0.70;;
17361;SDS011;8798;51.938;4.348;2022-07-06T06:18:01;1.10;;;0.43;;
17361;SDS011;8798;51.938;4.348;2022-07-06T06:20:31;1.90;;;0.60;;
17361;SDS011;8798;51.938;4.348;2022-07-06T06:23:00;1.33;;;0.40;;
17361;SDS011;8798;51.938;4.348;2022-07-06T06:25:31;1.33;;;0.43;;
17361;SDS011;8798;51.938;4.348;2022-07-06T06:28:01;1.20;;;0.40;;
17361;SDS011;8798;51.938;4.348;2022-07-06T06:30:30;0.73;;;0.53;;
17361;SDS011;8798;51.938;4.348;2022-07-06T06:33:09;1.37;;;0.40;;
17361;SDS011;8798;51.938;4.348;2022-07-06T06:35:41;0.70;;;0.40;;
17361;SDS011;8798;51.938;4.348;2022-07-06T06:38:11;0.93;;;0.40;;
17361;SDS011;8798;51.938;4.348;2022-07-06T06:40:39;0.47;;;0.40;;
17361;SDS011;8798;51.938;4.348;2022-07-06T06:43:07;1.33;;;0.40;;
17361;SDS011;8798;51.938;4.348;2022-07-06T06:45:36;0.97;;;0.30;;
17361;SDS011;8798;51.938;4.348;2022-07-06T06:48:04;1.70;;;0.30;;
17361;SDS011;8798;51.938;4.348;2022-07-06T06:50:41;1.13;;;0.50;;
17361;SDS011;8798;51.938;4.348;2022-07-06T06:53:09;1.13;;;0.43;;
17361;SDS011;8798;51.938;4.348;2022-07-06T06:55:37;1.00;;;0.40;;
17361;SDS011;8798;51.938;4.348;2022-07-06T06:58:06;1.63;;;0.60;;
17361;SDS011;8798;51.938;4.348;2022-07-06T07:00:34;0.67;;;0.30;;
17361;SDS011;8798;51.938;4.348;2022-07-06T07:03:03;0.70;;;0.33;;
17361;SDS011;8798;51.938;4.348;2022-07-06T07:05:31;0.23;;;0.23;;
17361;SDS011;8798;51.938;4.348;2022-07-06T07:08:00;0.73;;;0.30;;
17361;SDS011;8798;51.938;4.348;2022-07-06T07:10:30;0.40;;;0.30;;
17361;SDS011;8798;51.938;4.348;2022-07-06T07:12:58;0.90;;;0.40;;
17361;SDS011;8798;51.938;4.348;2022-07-06T07:15:27;4.17;;;0.50;;
17361;SDS011;8798;51.938;4.348;2022-07-06T07:17:55;2.77;;;0.30;;
17361;SDS011;8798;51.938;4.348;2022-07-06T07:20:24;0.90;;;0.40;;
17361;SDS011;8798;51.938;4.348;2022-07-06T07:22:52;1.03;;;0.40;;
17361;SDS011;8798;51.938;4.348;2022-07-06T07:25:21;1.63;;;0.53;;
17361;SDS011;8798;51.938;4.348;2022-07-06T07:27:50;0.50;;;0.40;;
17361;SDS011;8798;51.938;4.348;2022-07-06T07:30:18;2.47;;;0.40;;
17361;SDS011;8798;51.938;4.348;2022-07-06T07:32:47;1.30;;;0.43;;
17361;SDS011;8798;51.938;4.348;2022-07-06T07:35:15;1.53;;;0.50;;
17361;SDS011;8798;51.938;4.348;2022-07-06T07:37:50;0.83;;;0.40;;
17361;SDS011;8798;51.938;4.348;2022-07-06T07:40:18;0.83;;;0.40;;
17361;SDS011;8798;51.938;4.348;2022-07-06T07:42:48;2.13;;;0.30;;
17361;SDS011;8798;51.938;4.348;2022-07-06T07:45:17;0.20;;;0.20;;
17361;SDS011;8798;51.938;4.348;2022-07-06T07:47:45;1.23;;;0.20;;
17361;SDS011;8798;51.938;4.348;2022-07-06T07:50:13;2.13;;;0.40;;
17361;SDS011;8798;51.938;4.348;2022-07-06T07:52:41;1.37;;;0.37;;
17361;SDS011;8798;51.938;4.348;2022-07-06T07:55:09;1.23;;;0.50;;
17361;SDS011;8798;51.938;4.348;2022-07-06T07:58:00;1.37;;;0.60;;
17361;SDS011;8798;51.938;4.348;2022-07-06T08:00:31;0.65;;;0.50;;
17361;SDS011;8798;51.938;4.348;2022-07-06T08:03:00;0.93;;;0.40;;
17361;SDS011;8798;51.938;4.348;2022-07-06T08:05:28;1.27;;;0.30;;
17361;SDS011;8798;51.938;4.348;2022-07-06T08:07:56;1.30;;;0.40;;
17361;SDS011;8798;51.938;4.348;2022-07-06T08:10:24;1.07;;;0.40;;
17361;SDS011;8798;51.938;4.348;2022-07-06T08:12:55;1.20;;;0.50;;
17361;SDS011;8798;51.938;4.348;2022-07-06T08:15:25;3.53;;;0.30;;
17361;SDS011;8798;51.938;4.348;2022-07-06T08:17:54;1.77;;;0.30;;
17361;SDS011;8798;51.938;4.348;2022-07-06T08:20:22;0.33;;;0.30;;
17361;SDS011;8798;51.938;4.348;2022-07-06T08:22:50;0.80;;;0.30;;
17361;SDS011;8798;51.938;4.348;2022-07-06T08:25:19;0.70;;;0.40;;
17361;SDS011;8798;51.938;4.348;2022-07-06T08:27:47;1.40;;;0.30;;
17361;SDS011;8798;51.938;4.348;2022-07-06T08:30:16;1.83;;;0.30;;
17361;SDS011;8798;51.938;4.348;2022-07-06T08:32:45;0.30;;;0.30;;
17361;SDS011;8798;51.938;4.348;2022-07-06T08:35:32;0.30;;;0.30;;
17361;SDS011;8798;51.938;4.348;2022-07-06T08:38:01;1.80;;;0.30;;
17361;SDS011;8798;51.938;4.348;2022-07-06T08:40:31;0.77;;;0.30;;
17361;SDS011;8798;51.938;4.348;2022-07-06T08:43:02;0.97;;;0.40;;
17361;SDS011;8798;51.938;4.348;2022-07-06T08:45:30;0.50;;;0.20;;
17361;SDS011;8798;51.938;4.348;2022-07-06T08:48:04;0.90;;;0.40;;
17361;SDS011;8798;51.938;4.348;2022-07-06T08:50:34;0.97;;;0.40;;
17361;SDS011;8798;51.938;4.348;2022-07-06T08:53:03;0.50;;;0.40;;
17361;SDS011;8798;51.938;4.348;2022-07-06T08:55:31;1.67;;;0.40;;
17361;SDS011;8798;51.938;4.348;2022-07-06T08:58:00;1.37;;;0.30;;
17361;SDS011;8798;51.938;4.348;2022-07-06T09:00:31;0.40;;;0.30;;
17361;SDS011;8798;51.938;4.348;2022-07-06T09:03:00;1.43;;;0.40;;
17361;SDS011;8798;51.938;4.348;2022-07-06T09:05:30;2.03;;;0.40;;
17361;SDS011;8798;51.938;4.348;2022-07-06T09:08:00;1.03;;;0.30;;
17361;SDS011;8798;51.938;4.348;2022-07-06T09:10:29;0.97;;;0.40;;
17361;SDS011;8798;51.938;4.348;2022-07-06T09:13:04;0.30;;;0.30;;
17361;SDS011;8798;51.938;4.348;2022-07-06T09:15:34;1.70;;;0.40;;
17361;SDS011;8798;51.938;4.348;2022-07-06T09:18:05;1.17;;;0.20;;
17361;SDS011;8798;51.938;4.348;2022-07-06T09:20:35;2.70;;;0.50;;
17361;SDS011;8798;51.938;4.348;2022-07-06T09:23:04;1.80;;;0.50;;
17361;SDS011;8798;51.938;4.348;2022-07-06T09:25:39;1.67;;;0.50;;
17361;SDS011;8798;51.938;4.348;2022-07-06T09:28:07;1.10;;;0.40;;
17361;SDS011;8798;51.938;4.348;2022-07-06T09:30:36;0.40;;;0.30;;
17361;SDS011;8798;51.938;4.348;2022-07-06T09:33:07;2.67;;;0.60;;
17361;SDS011;8798;51.938;4.348;2022-07-06T09:35:39;0.30;;;0.30;;
17361;SDS011;8798;51.938;4.348;2022-07-06T09:38:08;2.67;;;0.40;;
17361;SDS011;8798;51.938;4.348;2022-07-06T09:40:38;1.97;;;0.60;;
17361;SDS011;8798;51.938;4.348;2022-07-06T09:43:08;1.03;;;0.50;;
17361;SDS011;8798;51.938;4.348;2022-07-06T09:45:38;1.40;;;0.40;;
17361;SDS011;8798;51.938;4.348;2022-07-06T09:48:08;0.63;;;0.40;;
17361;SDS011;8798;51.938;4.348;2022-07-06T09:50:39;1.53;;;0.57;;
17361;SDS011;8798;51.938;4.348;2022-07-06T09:53:11;2.37;;;0.57;;
17361;SDS011;8798;51.938;4.348;2022-07-06T09:55:42;1.23;;;0.50;;
17361;SDS011;8798;51.938;4.348;2022-07-06T09:58:11;1.53;;;0.63;;
17361;SDS011;8798;51.938;4.348;2022-07-06T10:00:39;1.70;;;0.53;;
17361;SDS011;8798;51.938;4.348;2022-07-06T10:03:07;3.13;;;0.60;;
17361;SDS011;8798;51.938;4.348;2022-07-06T10:05:36;1.67;;;0.60;;
17361;SDS011;8798;51.938;4.348;2022-07-06T10:08:07;1.30;;;0.60;;
17361;SDS011;8798;51.938;4.348;2022-07-06T10:10:37;0.77;;;0.60;;
17361;SDS011;8798;51.938;4.348;2022-07-06T10:13:06;5.30;;;0.80;;
17361;SDS011;8798;51.938;4.348;2022-07-06T10:15:36;2.33;;;0.83;;
17361;SDS011;8798;51.938;4.348;2022-07-06T10:18:07;2.00;;;0.70;;
17361;SDS011;8798;51.938;4.348;2022-07-06T10:20:37;4.23;;;0.83;;
17361;SDS011;8798;51.938;4.348;2022-07-06T10:23:08;2.23;;;0.67;;
17361;SDS011;8798;51.938;4.348;2022-07-06T10:25:36;3.33;;;0.97;;
17361;SDS011;8798;51.938;4.348;2022-07-06T10:28:05;2.87;;;0.70;;
17361;SDS011;8798;51.938;4.348;2022-07-06T10:30:41;3.00;;;0.80;;
17361;SDS011;8798;51.938;4.348;2022-07-06T10:33:11;4.20;;;0.77;;
17361;SDS011;8798;51.938;4.348;2022-07-06T10:35:41;2.10;;;0.80;;
17361;SDS011;8798;51.938;4.348;2022-07-06T10:38:12;2.30;;;0.97;;
17361;SDS011;8798;51.938;4.348;2022-07-06T10:40:40;3.13;;;0.80;;
17361;SDS011;8798;51.938;4.348;2022-07-06T10:43:33;1.57;;;0.70;;
17361;SDS011;8798;51.938;4.348;2022-07-06T10:46:05;1.80;;;0.60;;
17361;SDS011;8798;51.938;4.348;2022-07-06T10:48:34;1.20;;;0.70;;
17361;SDS011;8798;51.938;4.348;2022-07-06T10:51:03;2.07;;;0.70;;
17361;SDS011;8798;51.938;4.348;2022-07-06T10:53:34;2.10;;;0.90;;
17361;SDS011;8798;51.938;4.348;2022-07-06T10:56:04;2.23;;;0.80;;
17361;SDS011;8798;51.938;4.348;2022-07-06T10:58:37;2.50;;;0.90;;
17361;SDS011;8798;51.938;4.348;2022-07-06T11:01:13;3.13;;;0.77;;
17361;SDS011;8798;51.938;4.348;2022-07-06T11:03:43;2.53;;;0.90;;
17361;SDS011;8798;51.938;4.348;2022-07-06T11:06:13;2.27;;;0.70;;
17361;SDS011;8798;51.938;4.348;2022-07-06T11:08:47;1.27;;;0.80;;
17361;SDS011;8798;51.938;4.348;2022-07-06T11:11:21;1.77;;;0.80;;
17361;SDS011;8798;51.938;4.348;2022-07-06T11:13:52;2.00;;;0.80;;
17361;SDS011;8798;51.938;4.348;2022-07-06T11:16:22;1.67;;;0.73;;
17361;SDS011;8798;51.938;4.348;2022-07-06T11:19:06;1.30;;;0.60;;
17361;SDS011;8798;51.938;4.348;2022-07-06T11:21:40;1.70;;;0.67;;
17361;SDS011;8798;51.938;4.348;2022-07-06T11:24:13;2.67;;;0.77;;
17361;SDS011;8798;51.938;4.348;2022-07-06T11:26:43;2.83;;;0.80;;
17361;SDS011;8798;51.938;4.348;2022-07-06T11:29:15;1.83;;;0.93;;
17361;SDS011;8798;51.938;4.348;2022-07-06T11:31:45;1.37;;;0.70;;
17361;SDS011;8798;51.938;4.348;2022-07-06T11:34:17;2.60;;;0.80;;
17361;SDS011;8798;51.938;4.348;2022-07-06T11:36:46;1.03;;;0.70;;
17361;SDS011;8798;51.938;4.348;2022-07-06T11:39:16;0.93;;;0.50;;
17361;SDS011;8798;51.938;4.348;2022-07-06T11:41:44;2.30;;;0.80;;
17361;SDS011;8798;51.938;4.348;2022-07-06T11:44:17;0.83;;;0.60;;
17361;SDS011;8798;51.938;4.348;2022-07-06T11:46:45;1.10;;;0.53;;
17361;SDS011;8798;51.938;4.348;2022-07-06T11:49:14;2.40;;;0.80;;
17361;SDS011;8798;51.938;4.348;2022-07-06T11:51:44;2.80;;;0.80;;
17361;SDS011;8798;51.938;4.348;2022-07-06T11:54:17;1.13;;;0.60;;
17361;SDS011;8798;51.938;4.348;2022-07-06T11:56:47;1.47;;;0.80;;
17361;SDS011;8798;51.938;4.348;2022-07-06T11:59:16;2.92;;;0.90;;
17361;SDS011;8798;51.938;4.348;2022-07-06T12:01:49;1.13;;;0.67;;
17361;SDS011;8798;51.938;4.348;2022-07-06T12:04:25;4.50;;;1.10;;
17361;SDS011;8798;51.938;4.348;2022-07-06T12:06:54;3.17;;;1.00;;
17361;SDS011;8798;51.938;4.348;2022-07-06T12:09:24;2.35;;;1.00;;
17361;SDS011;8798;51.938;4.348;2022-07-06T12:11:52;2.57;;;0.77;;
17361;SDS011;8798;51.938;4.348;2022-07-06T12:14:21;3.90;;;0.70;;
17361;SDS011;8798;51.938;4.348;2022-07-06T12:16:49;3.10;;;1.00;;
17361;SDS011;8798;51.938;4.348;2022-07-06T12:19:18;1.47;;;0.80;;
17361;SDS011;8798;51.938;4.348;2022-07-06T12:21:50;3.20;;;1.00;;
17361;SDS011;8798;51.938;4.348;2022-07-06T12:24:19;1.63;;;0.80;;
17361;SDS011;8798;51.938;4.348;2022-07-06T12:26:50;3.20;;;1.00;;
17361;SDS011;8798;51.938;4.348;2022-07-06T12:29:20;3.03;;;0.90;;
17361;SDS011;8798;51.938;4.348;2022-07-06T12:31:50;5.50;;;1.00;;
17361;SDS011;8798;51.938;4.348;2022-07-06T12:34:20;4.00;;;1.00;;
17361;SDS011;8798;51.938;4.348;2022-07-06T12:36:50;4.22;;;1.17;;
17361;SDS011;8798;51.938;4.348;2022-07-06T12:39:20;7.57;;;1.47;;
17361;SDS011;8798;51.938;4.348;2022-07-06T12:41:51;3.10;;;0.88;;
17361;SDS011;8798;51.938;4.348;2022-07-06T12:44:20;4.70;;;1.00;;
17361;SDS011;8798;51.938;4.348;2022-07-06T12:47:01;3.83;;;1.33;;
17361;SDS011;8798;51.938;4.348;2022-07-06T12:49:30;2.37;;;1.03;;
17361;SDS011;8798;51.938;4.348;2022-07-06T12:52:00;3.60;;;0.97;;
17361;SDS011;8798;51.938;4.348;2022-07-06T12:54:32;3.47;;;1.00;;
17361;SDS011;8798;51.938;4.348;2022-07-06T12:57:04;2.58;;;0.77;;
17361;SDS011;8798;51.938;4.348;2022-07-06T12:59:40;2.57;;;1.10;;
17361;SDS011;8798;51.938;4.348;2022-07-06T13:02:10;2.40;;;1.00;;
17361;SDS011;8798;51.938;4.348;2022-07-06T13:05:03;2.83;;;1.10;;
17361;SDS011;8798;51.938;4.348;2022-07-06T13:07:34;4.07;;;1.30;;
17361;SDS011;8798;51.938;4.348;2022-07-06T13:10:05;2.70;;;1.30;;
17361;SDS011;8798;51.938;4.348;2022-07-06T13:12:36;3.53;;;1.20;;
17361;SDS011;8798;51.938;4.348;2022-07-06T13:15:05;5.97;;;1.10;;
17361;SDS011;8798;51.938;4.348;2022-07-06T13:17:35;3.85;;;1.20;;
17361;SDS011;8798;51.938;4.348;2022-07-06T13:20:05;2.95;;;1.10;;
17361;SDS011;8798;51.938;4.348;2022-07-06T13:22:36;6.05;;;1.60;;
17361;SDS011;8798;51.938;4.348;2022-07-06T13:25:05;2.45;;;1.20;;
17361;SDS011;8798;51.938;4.348;2022-07-06T13:27:36;4.03;;;1.40;;
17361;SDS011;8798;51.938;4.348;2022-07-06T13:30:04;3.35;;;1.40;;
17361;SDS011;8798;51.938;4.348;2022-07-06T13:32:33;3.92;;;1.40;;
17361;SDS011;8798;51.938;4.348;2022-07-06T13:35:01;3.25;;;1.38;;
17361;SDS011;8798;51.938;4.348;2022-07-06T13:37:30;5.70;;;1.90;;
17361;SDS011;8798;51.938;4.348;2022-07-06T13:39:59;4.53;;;1.52;;
17361;SDS011;8798;51.938;4.348;2022-07-06T13:42:28;5.00;;;1.70;;
17361;SDS011;8798;51.938;4.348;2022-07-06T13:44:58;4.22;;;1.85;;
17361;SDS011;8798;51.938;4.348;2022-07-06T13:47:26;4.10;;;1.70;;
17361;SDS011;8798;51.938;4.348;2022-07-06T13:49:54;3.05;;;1.20;;
17361;SDS011;8798;51.938;4.348;2022-07-06T13:52:22;4.63;;;1.58;;
17361;SDS011;8798;51.938;4.348;2022-07-06T13:54:50;3.55;;;1.52;;
17361;SDS011;8798;51.938;4.348;2022-07-06T13:57:27;3.60;;;1.60;;
17361;SDS011;8798;51.938;4.348;2022-07-06T13:59:55;4.22;;;1.70;;
17361;SDS011;8798;51.938;4.348;2022-07-06T14:02:25;3.63;;;1.80;;
17361;SDS011;8798;51.938;4.348;2022-07-06T14:04:53;5.75;;;1.95;;
17361;SDS011;8798;51.938;4.348;2022-07-06T14:07:21;2.83;;;1.55;;
17361;SDS011;8798;51.938;4.348;2022-07-06T14:09:49;2.53;;;1.33;;
17361;SDS011;8798;51.938;4.348;2022-07-06T14:12:18;3.53;;;1.70;;
17361;SDS011;8798;51.938;4.348;2022-07-06T14:14:48;4.35;;;1.77;;
17361;SDS011;8798;51.938;4.348;2022-07-06T14:17:16;5.47;;;2.00;;
17361;SDS011;8798;51.938;4.348;2022-07-06T14:19:46;3.25;;;1.80;;
17361;SDS011;8798;51.938;4.348;2022-07-06T14:22:15;6.15;;;2.47;;
17361;SDS011;8798;51.938;4.348;2022-07-06T14:24:43;4.90;;;2.40;;
17361;SDS011;8798;51.938;4.348;2022-07-06T14:27:12;5.40;;;1.85;;
17361;SDS011;8798;51.938;4.348;2022-07-06T14:29:40;4.28;;;2.00;;
17361;SDS011;8798;51.938;4.348;2022-07-06T14:32:09;5.75;;;1.80;;
17361;SDS011;8798;51.938;4.348;2022-07-06T14:34:37;4.05;;;2.30;;
17361;SDS011;8798;51.938;4.348;2022-07-06T14:37:07;4.93;;;2.10;;
17361;SDS011;8798;51.938;4.348;2022-07-06T14:39:36;10.98;;;3.63;;
17361;SDS011;8798;51.938;4.348;2022-07-06T14:42:04;3.33;;;2.25;;
17361;SDS011;8798;51.938;4.348;2022-07-06T14:44:32;5.85;;;1.90;;
17361;SDS011;8798;51.938;4.348;2022-07-06T14:47:01;5.75;;;2.20;;
17361;SDS011;8798;51.938;4.348;2022-07-06T14:49:30;4.80;;;2.00;;
17361;SDS011;8798;51.938;4.348;2022-07-06T14:51:58;4.35;;;2.10;;
17361;SDS011;8798;51.938;4.348;2022-07-06T14:54:28;3.97;;;1.70;;
17361;SDS011;8798;51.938;4.348;2022-07-06T14:56:56;8.25;;;2.28;;
17361;SDS011;8798;51.938;4.348;2022-07-06T14:59:25;7.28;;;2.20;;
17361;SDS011;8798;51.938;4.348;2022-07-06T15:01:54;6.18;;;1.90;;
17361;SDS011;8798;51.938;4.348;2022-07-06T15:04:22;6.53;;;1.83;;
17361;SDS011;8798;51.938;4.348;2022-07-06T15:06:50;4.88;;;1.88;;
17361;SDS011;8798;51.938;4.348;2022-07-06T15:09:21;6.05;;;1.55;;
17361;SDS011;8798;51.938;4.348;2022-07-06T15:11:54;7.00;;;1.50;;
17361;SDS011;8798;51.938;4.348;2022-07-06T15:14:22;4.35;;;1.42;;
17361;SDS011;8798;51.938;4.348;2022-07-06T15:16:52;3.80;;;1.10;;
17361;SDS011;8798;51.938;4.348;2022-07-06T15:19:20;5.25;;;1.40;;